KRWF/RWF METAR and TAF weather

Enter ICAO airport designator
Station Type Date Time Source
KRWF METAR 2021/05/14 12:53 UTC NOAA

KRWF 141253Z AUTO 15009KT 10SM SCT034 OVC065 11/06 A3017 RMK AO2 RAE03B36E45 SLP217 P0000 T01060056


Station Type Date Time Source
KRWF Decoded METAR 2021/05/14 12:53 UTC NOAA

REDWOOD FALLS MUNICIPAL, MN, United States (KRWF) 44-33N 95-05W 311M
May 14, 2021 - 08:53 AM EDT / 2021.05.14 1253 UTC
Wind: from the SSE (150 degrees) at 10 MPH (9 KT):0
Visibility: 10 mile(s):0
Sky conditions: overcast
Precipitation last hour: A trace
Temperature: 51.1 F (10.6 C)
Dew Point: 42.1 F (5.6 C)
Relative Humidity: 71%
Pressure (altimeter): 30.17 in. Hg (1021 hPa)
ob: KRWF 141253Z AUTO 15009KT 10SM SCT034 OVC065 11/06 A3017 RMK AO2 RAE03B36E45 SLP217 P0000 T01060056
cycle: 13

Station Type Date Time Source
KRWF TAF 2021/05/14 12:30 UTC NOAA

TAF KRWF 141127Z 1412/1512 16011KT P6SM -SHRA OVC050
FM141500 18012G19KT P6SM -SHRA SCT026 OVC045
FM141700 18013G21KT P6SM SCT022 BKN024 OVC040
TEMPO 1417/1421 2SM -SHRA BR BKN022 OVC040
FM150100 16008KT 5SM BR FEW022 SCT035

Example: see airport list